• Join FlightAware (Why Join?)
  • Login
  • US Flag 
07:50AM EST


 

Airport Tracker/Info


-or-


 

Live Flight TrackerFlight Track Log ✈ UPS1321 ✈ 21-Oct-2013 ✈ KJAX - KSDF

Flight Track Log - Related Links

Times and Time Zones

All times are in EDT time to prevent confusion due to time zone crossing. See the UPS1321 flight status page for this flight to view local times or setup timezone preferences in your user account.

Time Position Orientation Groundspeed Altitude Reporting Facility
EDT Latitude Longitude Course Direction KTS MPH feet Rate Location/Type
10:02PM 30.5310 -81.6400 13° North 191 220 3,500  Level FlightAware
10:03PM 30.5520 -81.6470 344° North 242 278 4,200 2,154 Climbing FlightAware
10:03PM 30.5690 -81.6580 331° Northwest 264 304 4,900 2,714 Climbing FlightAware
10:03PM 30.5870 -81.6720 326° Northwest 270 311 6,100 4,400 Climbing FlightAware
10:04PM 30.6150 -81.6980 321° Northwest 270 311 8,200 4,976 Climbing FlightAware
10:04PM 30.6360 -81.7140 327° Northwest 280 322 9,500 3,240 Climbing FlightAware
10:04PM 30.6670 -81.7400 324° Northwest 301 346 10,900 2,215 Climbing FlightAware
10:05PM 30.7160 -81.7770 327° Northwest 360 414 11,900 1,944 Climbing FlightAware
10:06PM 30.7680 -81.8170 327° Northwest 394 453 13,200 2,873 Climbing FlightAware
10:06PM 30.8260 -81.8550 331° Northwest 405 466 15,300 1,750 Climbing FlightAware
10:07PM 30.8790 -81.8850 334° Northwest 405 466 15,300  Level FlightAware
10:07PM 30.9300 -81.9140 334° Northwest 405 466 15,300 4,029 Level FlightAware
10:08PM 31.0150 -81.9590 336° Northwest 447 514 20,000 4,135 Climbing FlightAware
10:09PM 31.0830 -81.9980 334° Northwest 449 517 20,400 316 Climbing FlightAware
10:09PM 31.1400 -82.0310 334° Northwest 449 517 20,400  Level FlightAware
10:10PM 31.1970 -82.0630 334° Northwest 449 517 20,400  Level FlightAware
10:10PM 31.2540 -82.0960 334° Northwest 449 517 20,400  Level FlightAware
10:11PM 31.3190 -82.1330 334° Northwest 449 517 20,400  Level FlightAware
10:12PM 31.3760 -82.1650 334° Northwest 449 517 20,400 5,889 Level FlightAware
10:13PM 31.5900 -82.2800 335° Northwest 458 527 31,000 5,628 Climbing FlightAware
10:14PM 31.6570 -82.3180 334° Northwest 456 525 31,000  Level FlightAware
10:14PM 31.7150 -82.3510 334° Northwest 456 525 31,000  Level FlightAware
10:15PM 31.8020 -82.3990 335° Northwest 455 524 31,000  Level FlightAware
10:15PM 31.8770 -82.4420 334° Northwest 458 527 31,000  Level FlightAware
10:16PM 31.9690 -82.4930 335° Northwest 457 526 31,000  Level FlightAware
10:17PM 32.0440 -82.5350 335° Northwest 458 527 31,000 243 Level FlightAware
10:17PM 32.1100 -82.5720 335° Northwest 455 524 31,300 636 Climbing FlightAware
10:18PM 32.1710 -82.6070 334° Northwest 458 527 31,700 656 Climbing FlightAware
10:19PM 32.2320 -82.6420 334° Northwest 462 532 32,000 250 Climbing FlightAware
10:19PM 32.3100 -82.6860 335° Northwest 467 537 32,000  Level FlightAware
10:20PM 32.3940 -82.7340 334° Northwest 466 536 32,000  Level FlightAware
10:20PM 32.4620 -82.7670 338° Northwest 459 528 32,000  Level FlightAware
10:21PM 32.5570 -82.8040 342° North 455 524 32,000  Level FlightAware
10:22PM 32.5930 -82.8190 341° North 457 526 32,000  Level FlightAware
10:23PM 32.7060 -82.8630 342° North 459 528 32,000  Level FlightAware
10:23PM 32.7700 -82.8890 341° North 460 529 32,000  Level FlightAware
10:24PM 32.8400 -82.9160 342° North 461 531 32,000  Level FlightAware
10:24PM 32.9120 -82.9450 341° North 462 532 32,000  Level FlightAware
10:25PM 32.9830 -82.9730 342° North 464 534 32,000  Level FlightAware
10:26PM 33.0740 -83.0100 341° North 465 535 32,000  Level FlightAware
10:26PM 33.1370 -83.0350 342° North 467 537 32,000  Level FlightAware
10:27PM 33.2120 -83.0650 341° North 468 539 32,000  Level FlightAware
10:27PM 33.2870 -83.0950 342° North 469 540 32,000  Level FlightAware
10:28PM 33.3640 -83.1260 341° North 470 541 32,000  Level FlightAware
10:28PM 33.4250 -83.1510 341° North 469 540 32,000  Level FlightAware
10:29PM 33.5020 -83.1820 341° North 468 539 32,000  Level FlightAware
10:30PM 33.5870 -83.2160 342° North 468 539 32,000  Level FlightAware
10:30PM 33.6600 -83.2460 341° North 467 537 32,000  Level FlightAware
10:31PM 33.7350 -83.2760 342° North 464 534 32,000  Level FlightAware
10:31PM 33.8080 -83.3050 342° North 461 531 32,000  Level FlightAware
10:32PM 33.8750 -83.3330 341° North 463 533 32,000  Level FlightAware
10:33PM 33.9490 -83.3630 341° North 464 534 32,000  Level FlightAware
10:33PM 34.0140 -83.3900 341° North 465 535 32,000  Level FlightAware
10:33PM 34.0421 -83.4008 342° North 465 535 32,000  Level FlightAware ADS-B
10:34PM 34.1283 -83.4365 341° North 460 529 32,000  Level FlightAware ADS-B
10:35PM 34.1889 -83.4613 341° North 459 528 32,000  Level FlightAware ADS-B
10:35PM 34.2591 -83.4904 341° North 465 535 32,000  Level FlightAware ADS-B
10:36PM 34.3331 -83.5205 341° North 465 535 32,000  Level FlightAware ADS-B
10:36PM 34.3968 -83.5464 341° North 461 531 32,000  Level FlightAware ADS-B
10:37PM 34.4575 -83.5714 341° North 457 526 32,000  Level FlightAware ADS-B
10:37PM 34.5189 -83.5974 341° North 461 531 32,000  Level FlightAware ADS-B
10:38PM 34.5824 -83.6236 341° North 466 536 32,000  Level FlightAware ADS-B
10:38PM 34.6487 -83.6512 341° North 464 534 32,000  Level FlightAware ADS-B
10:39PM 34.7099 -83.6765 341° North 462 532 32,000  Level FlightAware ADS-B
10:39PM 34.7740 -83.7035 341° North 461 531 32,000  Level FlightAware ADS-B
10:40PM 34.8361 -83.7287 342° North 461 531 32,000  Level FlightAware ADS-B
10:41PM 34.9308 -83.7685 341° North 461 531 32,000  Level FlightAware ADS-B
10:41PM 34.9917 -83.7937 341° North 461 531 32,000  Level FlightAware ADS-B
10:42PM 35.0552 -83.8207 341° North 456 525 32,000  Level FlightAware ADS-B
10:42PM 35.1148 -83.8460 341° North 453 521 32,000  Level FlightAware ADS-B
10:43PM 35.1754 -83.8708 342° North 450 518 32,000  Level FlightAware ADS-B
10:43PM 35.2350 -83.8966 341° North 452 520 32,000  Level FlightAware ADS-B
10:44PM 35.3061 -83.9261 341° North 457 526 32,000  Level FlightAware ADS-B
10:44PM 35.3714 -83.9539 341° North 457 526 32,000  Level FlightAware ADS-B
10:45PM 35.4324 -83.9792 341° North 455 524 32,000 -190 Level FlightAware ADS-B
10:45PM 35.4970 -84.0070 341° North 451 519 31,800 -656 Descending FlightAware ADS-B
10:46PM 35.5574 -84.0329 341° North 446 513 31,300 -984 Descending FlightAware ADS-B
10:46PM 35.6164 -84.0578 341° North 444 511 30,800 -1,000 Descending FlightAware ADS-B
10:47PM 35.6749 -84.0828 341° North 449 517 30,300 -1,100 Descending FlightAware ADS-B
10:47PM 35.7355 -84.1091 341° North 455 524 29,700 -1,065 Descending FlightAware ADS-B
10:48PM 35.7973 -84.1351 341° North 449 517 29,200 -1,048 Descending FlightAware ADS-B
10:49PM 35.8587 -84.1610 341° North 445 512 28,600 -1,143 Descending FlightAware ADS-B
10:49PM 35.9202 -84.1881 340° North 447 514 28,000 -1,048 Descending FlightAware ADS-B
10:50PM 35.9811 -84.2139 341° North 443 510 27,500 -1,048 Descending FlightAware ADS-B
10:50PM 36.0434 -84.2402 341° North 436 502 26,900 -1,065 Descending FlightAware ADS-B
10:51PM 36.1008 -84.2656 340° North 432 497 26,400 -871 Descending FlightAware ADS-B
10:51PM 36.1600 -84.2905 341° North 420 483 26,000 -375 Descending FlightAware ADS-B
10:52PM 36.2189 -84.3160 341° North 417 480 26,000  Level FlightAware ADS-B
10:52PM 36.2751 -84.3409 340° North 421 484 26,000  Level FlightAware ADS-B
10:53PM 36.3316 -84.3658 340° North 425 489 26,000  Level FlightAware ADS-B
10:53PM 36.3890 -84.3909 341° North 425 489 26,000  Level FlightAware ADS-B
10:54PM 36.4450 -84.4153 341° North 426 490 26,000  Level FlightAware ADS-B
10:54PM 36.5025 -84.4402 341° North 422 486 26,000  Level FlightAware ADS-B
10:55PM 36.5573 -84.4641 341° North 416 479 26,000  Level FlightAware ADS-B
10:55PM 36.6136 -84.4892 340° North 419 482 26,000 -387 Level FlightAware ADS-B
10:56PM 36.6700 -84.5134 341° North 421 484 25,600 -831 Descending FlightAware ADS-B
10:56PM 36.7334 -84.5413 341° North 431 496 25,100 -923 Descending FlightAware ADS-B
10:57PM 36.7921 -84.5675 340° North 443 510 24,600 -1,000 Descending FlightAware ADS-B
10:57PM 36.8599 -84.5974 341° North 446 513 24,000 -1,015 Descending FlightAware ADS-B
10:58PM 36.9198 -84.6239 341° North 444 511 23,500 -984 Descending FlightAware ADS-B
10:58PM 36.9782 -84.6493 341° North 442 509 23,000 -1,082 Descending FlightAware ADS-B
10:59PM 37.0373 -84.6756 340° North 438 504 22,400 -1,082 Descending FlightAware ADS-B
10:59PM 37.0959 -84.7011 341° North 435 501 21,900 -984 Descending FlightAware ADS-B
11:00PM 37.1536 -84.7271 340° North 433 498 21,400 -1,082 Descending FlightAware ADS-B
11:00PM 37.2113 -84.7523 341° North 430 495 20,800 -1,645 Descending FlightAware ADS-B
11:01PM 37.2681 -84.7779 340° North 417 480 19,700 -2,286 Descending FlightAware ADS-B
11:02PM 37.3220 -84.8020 340° North 413 475 18,400 -2,516 Descending FlightAware
11:02PM 37.3792 -84.8279 340° North 399 459 17,100 -1,753 Descending FlightAware ADS-B
11:03PM 37.4610 -84.8640 341° North 405 466 15,800 -821 Descending FlightAware
11:04PM 37.5150 -84.8880 341° North 405 466 15,800  Level FlightAware
11:04PM 37.5710 -84.9120 341° North 405 466 15,800  Level FlightAware
11:05PM 37.6250 -84.9350 341° North 405 466 15,800  Level FlightAware
11:05PM 37.6800 -84.9590 341° North 405 466 15,800  Level FlightAware
11:06PM 37.7340 -84.9830 341° North 405 466 15,800 -2,722 Level FlightAware
11:07PM 37.7670 -85.1070 289° West 8,000 -3,267 Descending FlightAware
11:09PM 37.8140 -85.2300 296° West 261 300 6,000 -1,143 Descending FlightAware
11:09PM 37.8170 -85.2440 285° West 251 289 6,000  Level FlightAware
11:10PM 37.8240 -85.2760 285° West 251 289 6,000  Level FlightAware
11:10PM 37.8280 -85.2930 287° West 251 289 6,000  Level FlightAware
11:10PM 37.8350 -85.3220 287° West 251 289 6,000  Level FlightAware
11:10PM 37.8390 -85.3410 285° West 251 289 6,000  Level FlightAware
11:11PM 37.8470 -85.3790 285° West 247 284 6,000 -480 Level FlightAware
11:11PM 37.8540 -85.4070 288° West 244 281 5,600 -1,500 Descending FlightAware
11:11PM 37.8620 -85.4360 289° West 250 288 4,900 -1,714 Descending FlightAware
11:12PM 37.8670 -85.4530 290° West 249 287 4,600 -1,333 Descending FlightAware
11:12PM 37.8800 -85.4920 293° West 249 287 4,100 -933 Descending FlightAware
11:12PM 37.8900 -85.5130 301° West 249 287 3,900 -900 Descending FlightAware
11:13PM 37.9030 -85.5420 300° West 247 284 3,500 -1,050 Descending FlightAware
11:13PM 37.9150 -85.5670 301° West 247 284 3,200 -686 Descending FlightAware
11:13PM 37.9230 -85.5850 299° West 244 281 3,100 -333 Descending FlightAware
11:14PM 37.9330 -85.6090 298° West 231 266 3,000 -150 Descending FlightAware
11:14PM 37.9430 -85.6300 301° West 213 245 3,000  Level FlightAware
11:14PM 37.9500 -85.6420 306° West 211 243 3,000  Level FlightAware
11:14PM 37.9540 -85.6470 315° West 212 244 3,000  Level FlightAware
11:15PM 37.9680 -85.6610 322° Northwest 202 232 3,000  Level FlightAware
11:15PM 37.9830 -85.6770 320° Northwest 197 227 3,000  Level FlightAware
11:15PM 37.9970 -85.6860 333° Northwest 202 232 3,000  Level FlightAware
11:15PM 38.0030 -85.6880 345° North 204 235 3,000  Level FlightAware
11:16PM 38.0230 -85.6940 347° North 194 223 3,000 -267 Level FlightAware
11:16PM 38.0410 -85.7010 343° North 183 211 2,800 -750 Descending FlightAware
11:16PM 38.0570 -85.7060 346° North 179 206 2,500 -933 Descending FlightAware
11:17PM 38.0770 -85.7130 345° North 169 194 2,100 -453 Descending FlightAware
11:17PM 38.0960 -85.7180 348° North 169 194 2,100 -500 Level FlightAware
11:18PM 38.1150 -85.7250 344° North 153 176 1,600 -986 Descending FlightAware
11:19PM 38.1333 -85.7333 344° North 118 136 900 -1,024 Descending Louisville TRACON
11:21PM 38.1741 -85.7365 208° Southwest  Level Estimated